Time;durP1;ratioP1;P1;durP2;ratioP2;P2;SDS_P1;SDS_P2;PMS_P1;PMS_P2;Temp;Humidity;BMP_temperature;BMP_pressure;BME280_temperature;BME280_humidity;BME280_pressure;Samples;Min_cycle;Max_cycle;Signal;HPM_P1;HPM_P2
2023/04/30 00:01:56;;;;;;;10.95;5.38;;;;;;;10.60;100.00;99095.91;4969324;28;20154;-63
2023/04/30 00:04:22;;;;;;;10.45;5.32;;;;;;;10.59;100.00;99086.13;4968098;28;20041;-63
2023/04/30 00:06:47;;;;;;;9.35;5.70;;;;;;;10.57;100.00;99085.50;4974378;28;20062;-63
2023/04/30 00:09:12;;;;;;;8.50;5.43;;;;;;;10.58;100.00;99097.97;4988525;28;20070;-63
2023/04/30 00:11:38;;;;;;;9.60;6.25;;;;;;;10.58;100.00;99092.56;4983684;28;20124;-63
2023/04/30 00:14:03;;;;;;;9.95;5.68;;;;;;;10.59;100.00;99096.13;4991359;28;20034;-63
2023/04/30 00:16:28;;;;;;;11.85;6.57;;;;;;;10.56;100.00;99086.53;4971699;28;20030;-63
2023/04/30 00:18:54;;;;;;;12.75;6.47;;;;;;;10.59;100.00;99094.25;4976456;28;20054;-63
2023/04/30 00:21:19;;;;;;;8.60;6.10;;;;;;;10.55;100.00;99090.25;4993104;28;20026;-63
2023/04/30 00:23:45;;;;;;;9.50;5.93;;;;;;;10.55;100.00;99084.84;4969435;28;20414;-63
2023/04/30 00:26:10;;;;;;;10.90;6.07;;;;;;;10.51;100.00;99091.69;4973770;28;20275;-63
2023/04/30 00:28:35;;;;;;;11.18;6.07;;;;;;;10.50;100.00;99092.72;4972844;28;20019;-63
2023/04/30 00:31:01;;;;;;;10.18;6.35;;;;;;;10.48;100.00;99095.63;4961652;28;20057;-63
2023/04/30 00:33:27;;;;;;;10.65;6.25;;;;;;;10.46;100.00;99099.56;4975200;28;20112;-57
2023/04/30 00:35:52;;;;;;;12.25;5.97;;;;;;;10.49;100.00;99100.00;4975309;28;20884;-56
2023/04/30 00:38:17;;;;;;;11.35;6.60;;;;;;;10.43;100.00;99100.78;4973757;28;20096;-57
2023/04/30 00:40:45;;;;;;;10.35;6.57;;;;;;;10.49;100.00;99107.28;4991459;28;20027;-57
2023/04/30 00:43:11;;;;;;;12.13;6.07;;;;;;;10.51;100.00;99110.63;4973750;28;20426;-56
2023/04/30 00:45:36;;;;;;;10.00;6.00;;;;;;;10.47;100.00;99109.34;4970269;28;20022;-56
2023/04/30 00:48:02;;;;;;;10.27;6.55;;;;;;;10.46;100.00;99118.50;4975947;28;20120;-57
2023/04/30 00:50:28;;;;;;;11.88;6.90;;;;;;;10.43;100.00;99113.47;4982222;28;20023;-57
2023/04/30 00:52:54;;;;;;;9.77;6.28;;;;;;;10.42;100.00;99117.19;4981772;28;20018;-56
2023/04/30 00:55:19;;;;;;;10.38;6.13;;;;;;;10.42;100.00;99123.44;4974490;28;20470;-59
2023/04/30 00:57:45;;;;;;;8.27;5.38;;;;;;;10.47;100.00;99120.16;4975341;28;20065;-57
2023/04/30 01:00:12;;;;;;;10.05;5.45;;;;;;;10.43;100.00;99122.44;4973860;28;20424;-56
2023/04/30 01:02:38;;;;;;;11.57;6.00;;;;;;;10.38;100.00;99114.06;4983754;28;20441;-56
2023/04/30 01:05:05;;;;;;;10.00;5.90;;;;;;;10.35;100.00;99113.59;4972923;28;20030;-56
2023/04/30 01:07:30;;;;;;;11.05;6.43;;;;;;;10.41;100.00;99118.25;4976688;28;20018;-56
2023/04/30 01:09:56;;;;;;;10.52;5.88;;;;;;;10.33;100.00;99123.78;4966523;28;20033;-62
2023/04/30 01:12:28;;;;;;;10.35;6.47;;;;;;;10.31;100.00;99116.69;4972247;28;20470;-62
2023/04/30 01:15:21;;;;;;;9.25;5.95;;;;;;;10.27;100.00;99120.81;4973024;28;20487;-62
2023/04/30 01:17:58;;;;;;;9.77;6.47;;;;;;;10.26;100.00;99129.91;4991689;28;20058;-62
2023/04/30 01:20:27;;;;;;;10.98;6.13;;;;;;;10.21;100.00;99131.53;4977229;28;20409;-62
2023/04/30 01:23:10;;;;;;;;;;;;;;;10.18;100.00;99126.50;4980951;28;20169;-62
2023/04/30 01:25:39;;;;;;;10.55;6.63;;;;;;;10.19;100.00;99118.22;4973278;28;19918;-63
2023/04/30 01:28:19;;;;;;;11.70;6.67;;;;;;;10.16;100.00;99118.59;4989307;28;20041;-63
2023/04/30 01:30:45;;;;;;;11.20;7.15;;;;;;;10.24;100.00;99114.91;4971877;28;20290;-62
2023/04/30 01:33:11;;;;;;;13.70;7.05;;;;;;;10.20;100.00;99111.78;4993371;28;20027;-63
2023/04/30 01:36:14;;;;;;;9.95;6.63;;;;;;;10.22;100.00;99107.00;4983116;28;20033;-68
2023/04/30 01:38:49;;;;;;;11.02;7.20;;;;;;;10.19;100.00;99096.59;4975002;28;20113;-57
2023/04/30 01:41:46;;;;;;;11.45;7.22;;;;;;;10.16;100.00;99098.81;4984844;28;20030;-57
2023/04/30 01:44:36;;;;;;;12.13;7.38;;;;;;;10.13;100.00;99094.63;4978802;28;20081;-56
2023/04/30 01:47:05;;;;;;;11.15;7.28;;;;;;;10.15;100.00;99100.69;4980250;28;20057;-57
2023/04/30 01:49:49;;;;;;;10.52;6.97;;;;;;;10.12;100.00;99109.19;4980122;28;20041;-69
2023/04/30 01:52:19;;;;;;;13.20;7.15;;;;;;;10.08;100.00;99107.91;4982115;28;20038;-63
2023/04/30 01:54:58;;;;;;;10.43;7.00;;;;;;;10.10;100.00;99098.56;4995070;28;20037;-63
2023/04/30 01:57:37;;;;;;;10.45;6.30;;;;;;;10.09;100.00;99106.88;4966999;28;20401;-63
2023/04/30 02:00:03;;;;;;;13.70;7.55;;;;;;;10.06;100.00;99105.41;4972704;28;20022;-63
2023/04/30 02:02:29;;;;;;;11.75;7.25;;;;;;;10.05;100.00;99111.81;4977890;28;20504;-63
2023/04/30 02:04:55;;;;;;;11.73;7.40;;;;;;;10.03;100.00;99107.63;4979559;28;20053;-63
2023/04/30 02:07:38;;;;;;;11.98;7.05;;;;;;;10.00;100.00;99108.88;4978618;28;20466;-63
2023/04/30 02:10:04;;;;;;;10.50;6.75;;;;;;;10.05;100.00;99106.41;4974335;28;20041;-62
2023/04/30 02:12:30;;;;;;;11.85;7.72;;;;;;;10.01;100.00;99099.75;4968442;28;20573;-57
2023/04/30 02:14:55;;;;;;;11.35;7.05;;;;;;;9.97;100.00;99100.31;4978749;28;20075;-56
2023/04/30 02:17:21;;;;;;;14.23;7.18;;;;;;;10.09;100.00;99102.31;4977087;28;20026;-63
2023/04/30 02:19:46;;;;;;;13.02;7.40;;;;;;;10.10;100.00;99103.16;4977647;28;20026;-62
2023/04/30 02:22:11;;;;;;;13.43;7.20;;;;;;;10.11;100.00;99094.00;4975624;28;20038;-63
2023/04/30 02:24:37;;;;;;;10.13;7.28;;;;;;;10.05;100.00;99090.19;4993853;28;20648;-63
2023/04/30 02:27:02;;;;;;;11.30;7.18;;;;;;;10.05;100.00;99094.78;4977661;28;20467;-63
2023/04/30 02:29:28;;;;;;;11.55;7.38;;;;;;;10.07;100.00;99092.72;4979756;28;20497;-63
2023/04/30 02:31:58;;;;;;;11.85;7.97;;;;;;;10.12;100.00;99084.88;4981977;28;20060;-57
2023/04/30 02:34:23;;;;;;;10.90;7.63;;;;;;;10.08;100.00;99088.97;4980019;28;20120;-63
2023/04/30 02:36:49;;;;;;;11.02;6.97;;;;;;;10.04;100.00;99087.72;4971875;28;20160;-57
2023/04/30 02:39:14;;;;;;;12.60;7.22;;;;;;;10.08;100.00;99094.38;4974438;28;20030;-56
2023/04/30 02:41:39;;;;;;;11.68;7.50;;;;;;;10.06;100.00;99096.44;4976850;28;20026;-57
2023/04/30 02:44:05;;;;;;;11.55;7.07;;;;;;;10.01;100.00;99093.50;4969296;28;20034;-58
2023/04/30 02:46:30;;;;;;;13.93;7.20;;;;;;;10.01;100.00;99098.91;4977340;28;20084;-57
2023/04/30 02:48:55;;;;;;;9.35;6.90;;;;;;;9.98;100.00;99088.47;4979805;28;20069;-56
2023/04/30 02:53:56;;;;;;;10.55;7.28;;;;;;;9.92;100.00;99078.44;5049244;23;20092;-73
2023/04/30 02:56:21;;;;;;;12.25;7.15;;;;;;;9.84;100.00;99063.16;5023074;28;20033;-72
2023/04/30 02:58:47;;;;;;;11.55;7.63;;;;;;;9.85;100.00;99067.53;5032775;28;20663;-72
2023/04/30 03:01:12;;;;;;;11.32;7.43;;;;;;;9.93;100.00;99093.59;5026646;28;20040;-73
2023/04/30 03:03:38;;;;;;;10.45;6.95;;;;;;;9.88;100.00;99083.38;5023113;28;20048;-75
2023/04/30 03:06:03;;;;;;;11.75;7.70;;;;;;;9.86;100.00;99075.47;5015826;28;20517;-76
2023/04/30 03:08:29;;;;;;;10.65;7.72;;;;;;;9.85;100.00;99073.81;5024199;28;20021;-73
2023/04/30 03:10:54;;;;;;;13.93;7.60;;;;;;;10.00;100.00;99091.81;5011305;28;20078;-73
2023/04/30 03:13:19;;;;;;;12.23;7.53;;;;;;;9.86;100.00;99072.75;5027511;28;20052;-74
2023/04/30 03:15:45;;;;;;;15.23;8.13;;;;;;;10.03;100.00;99084.16;5022239;28;20037;-73
2023/04/30 03:18:10;;;;;;;11.30;7.45;;;;;;;9.88;100.00;99078.00;5020731;28;20071;-74
2023/04/30 03:20:35;;;;;;;12.15;7.55;;;;;;;9.93;100.00;99080.94;5012382;28;20467;-75
2023/04/30 03:23:01;;;;;;;12.02;6.78;;;;;;;9.83;100.00;99075.84;5029508;28;20117;-74
2023/04/30 03:25:26;;;;;;;11.98;8.10;;;;;;;9.86;100.00;99078.16;5032593;28;20068;-75
2023/04/30 03:27:51;;;;;;;14.85;7.82;;;;;;;9.84;100.00;99077.50;5015408;28;20062;-75
2023/04/30 03:30:17;;;;;;;12.43;7.68;;;;;;;9.85;100.00;99073.81;5007938;28;20029;-74
2023/04/30 03:32:42;;;;;;;14.35;7.35;;;;;;;9.82;100.00;99063.38;5023194;28;20041;-75
2023/04/30 03:35:08;;;;;;;11.73;7.78;;;;;;;9.85;100.00;99072.94;5024820;28;20080;-74
2023/04/30 03:37:33;;;;;;;10.85;7.43;;;;;;;9.81;100.00;99072.50;5015097;28;20029;-75
2023/04/30 03:39:58;;;;;;;12.07;7.75;;;;;;;9.82;100.00;99079.59;5022008;28;20036;-77
2023/04/30 03:42:24;;;;;;;13.60;7.68;;;;;;;9.86;100.00;99077.34;5021734;28;20124;-75
2023/04/30 03:44:49;;;;;;;19.48;8.80;;;;;;;9.71;100.00;99063.88;5032699;28;20029;-76
2023/04/30 03:47:14;;;;;;;12.68;7.80;;;;;;;9.68;100.00;99066.94;5019403;28;20518;-77
2023/04/30 03:49:40;;;;;;;13.50;7.55;;;;;;;9.75;100.00;99089.47;5031419;28;20021;-77
2023/04/30 03:52:06;;;;;;;13.00;8.68;;;;;;;9.62;100.00;99067.72;5040458;28;20075;-77
2023/04/30 03:54:32;;;;;;;12.00;7.85;;;;;;;9.77;100.00;99087.44;5033365;28;20591;-74
2023/04/30 03:56:58;;;;;;;13.10;8.05;;;;;;;9.66;100.00;99069.00;5026035;28;20026;-74
2023/04/30 03:59:23;;;;;;;13.30;8.07;;;;;;;9.75;100.00;99081.38;5011345;28;20022;-77
2023/04/30 04:01:49;;;;;;;14.40;8.13;;;;;;;9.69;100.00;99055.09;5018032;28;20036;-76
2023/04/30 04:04:15;;;;;;;14.35;8.07;;;;;;;9.58;100.00;99064.56;5022379;28;20495;-76
2023/04/30 04:06:40;;;;;;;12.60;8.10;;;;;;;9.57;100.00;99053.97;5010232;28;20108;-74
2023/04/30 04:09:05;;;;;;;12.82;8.63;;;;;;;9.62;100.00;99065.03;5030835;28;20026;-76
2023/04/30 04:11:31;;;;;;;16.02;8.77;;;;;;;9.58;100.00;99061.03;5005555;28;20017;-74
2023/04/30 04:13:56;;;;;;;11.00;7.85;;;;;;;9.58;100.00;99055.63;5021219;28;20030;-74
2023/04/30 04:16:21;;;;;;;11.18;8.13;;;;;;;9.73;100.00;99088.84;5025918;28;20038;-76
2023/04/30 04:18:47;;;;;;;14.70;8.98;;;;;;;9.63;100.00;99082.91;5012053;28;20029;-76
2023/04/30 04:21:12;;;;;;;12.25;8.07;;;;;;;9.61;100.00;99084.94;5003519;28;20030;-75
2023/04/30 04:23:37;;;;;;;12.38;8.20;;;;;;;9.50;100.00;99058.44;5030757;28;20092;-76
2023/04/30 04:26:02;;;;;;;12.73;8.23;;;;;;;9.68;100.00;99093.97;5035297;28;20025;-75
2023/04/30 04:28:28;;;;;;;14.40;9.25;;;;;;;9.65;100.00;99097.06;5032360;28;20032;-75
2023/04/30 04:30:53;;;;;;;13.80;8.88;;;;;;;9.58;100.00;99082.63;5030120;28;20029;-76
2023/04/30 04:33:18;;;;;;;12.30;8.50;;;;;;;9.77;100.00;99105.50;5016039;28;20076;-74
2023/04/30 04:35:44;;;;;;;12.55;8.48;;;;;;;9.75;100.00;99094.88;5019634;28;20097;-75
2023/04/30 04:38:10;;;;;;;11.52;8.02;;;;;;;9.85;100.00;99099.97;5027657;28;20072;-74
2023/04/30 04:40:36;;;;;;;13.38;8.38;;;;;;;9.85;100.00;99092.72;5024779;28;20025;-75
2023/04/30 04:43:01;;;;;;;11.95;7.78;;;;;;;9.91;100.00;99093.81;5013873;28;20029;-77
2023/04/30 04:45:27;;;;;;;13.18;8.50;;;;;;;9.91;100.00;99111.91;5030391;28;20044;-75
2023/04/30 04:47:52;;;;;;;14.55;9.38;;;;;;;9.79;100.00;99084.53;5013492;28;20036;-75
2023/04/30 04:50:17;;;;;;;14.13;8.48;;;;;;;9.88;100.00;99103.13;5030316;28;20021;-75
2023/04/30 04:52:43;;;;;;;18.10;9.32;;;;;;;9.98;100.00;99110.06;5017538;28;20033;-74
2023/04/30 04:55:08;;;;;;;12.73;8.52;;;;;;;10.09;100.00;99109.59;5028849;28;20565;-74
2023/04/30 04:57:33;;;;;;;11.32;7.63;;;;;;;10.12;100.00;99106.50;5031770;28;20471;-75
2023/04/30 04:59:59;;;;;;;12.13;8.27;;;;;;;10.23;100.00;99107.84;5013378;28;20017;-75
2023/04/30 05:02:24;;;;;;;11.90;8.05;;;;;;;10.26;100.00;99093.94;5017456;28;20033;-75
2023/04/30 05:04:50;;;;;;;12.95;8.27;;;;;;;10.50;100.00;99103.53;5011851;28;20470;-75
2023/04/30 05:07:17;;;;;;;12.98;8.32;;;;;;;10.51;100.00;99094.41;5031133;28;20029;-76
2023/04/30 05:09:44;;;;;;;14.23;8.10;;;;;;;10.59;100.00;99099.66;5025884;28;20527;-75
2023/04/30 05:12:09;;;;;;;14.35;8.75;;;;;;;10.74;100.00;99094.13;5017107;28;20483;-74
2023/04/30 05:14:36;;;;;;;14.80;8.57;;;;;;;10.87;100.00;99086.13;5017714;28;20120;-76
2023/04/30 05:17:01;;;;;;;12.45;7.55;;;;;;;11.06;100.00;99097.28;5012232;28;20478;-76
2023/04/30 05:19:26;;;;;;;14.40;8.73;;;;;;;11.12;100.00;99072.94;5017907;28;20029;-75
2023/04/30 05:21:51;;;;;;;11.82;7.03;;;;;;;11.61;100.00;99101.72;5015466;28;20379;-75
2023/04/30 05:24:17;;;;;;;11.40;7.93;;;;;;;11.60;100.00;99088.34;5028307;28;20092;-76
2023/04/30 05:26:42;;;;;;;11.95;7.40;;;;;;;11.78;100.00;99101.34;5014855;28;20029;-75
2023/04/30 05:29:09;;;;;;;12.82;7.85;;;;;;;11.90;100.00;99093.50;5016764;28;20534;-76
2023/04/30 05:31:35;;;;;;;11.88;8.18;;;;;;;11.92;100.00;99085.97;5005070;28;20014;-80
2023/04/30 05:34:00;;;;;;;15.02;8.57;;;;;;;12.06;100.00;99064.09;5010352;28;20030;-77
2023/04/30 05:36:27;;;;;;;13.70;7.80;;;;;;;12.45;100.00;99067.91;5014391;28;20433;-75
2023/04/30 05:38:52;;;;;;;11.82;7.82;;;;;;;12.65;100.00;99069.75;5009015;28;20487;-75
2023/04/30 05:41:17;;;;;;;14.07;7.65;;;;;;;13.20;100.00;99094.72;5030538;28;20120;-76
2023/04/30 05:43:43;;;;;;;11.05;7.10;;;;;;;13.51;100.00;99085.03;5014129;28;20029;-77
2023/04/30 05:46:08;;;;;;;11.65;7.60;;;;;;;13.50;100.00;99070.63;5014172;28;20026;-77
2023/04/30 05:48:33;;;;;;;11.57;6.90;;;;;;;13.63;100.00;99060.75;5016788;28;20029;-77
2023/04/30 05:50:59;;;;;;;14.02;7.57;;;;;;;13.96;100.00;99071.41;5031092;28;20025;-79
2023/04/30 05:53:24;;;;;;;14.70;7.28;;;;;;;14.03;100.00;99089.38;5029651;28;20112;-76
2023/04/30 05:55:49;;;;;;;13.80;7.25;;;;;;;14.06;100.00;99060.06;5012338;28;20167;-75
2023/04/30 05:58:15;;;;;;;11.50;6.80;;;;;;;14.25;100.00;99076.25;5016846;28;20450;-76
2023/04/30 06:00:40;;;;;;;9.85;6.85;;;;;;;13.96;100.00;99055.09;5003085;28;20098;-75
2023/04/30 06:03:06;;;;;;;9.10;6.90;;;;;;;14.20;100.00;99043.44;5027596;28;20033;-75
2023/04/30 06:05:31;;;;;;;10.60;6.95;;;;;;;15.23;100.00;99074.75;5031869;28;20029;-75
2023/04/30 06:07:57;;;;;;;10.20;6.85;;;;;;;16.95;100.00;99056.09;5031070;28;20499;-77
2023/04/30 06:10:23;;;;;;;11.13;6.93;;;;;;;19.15;98.35;99077.47;5015650;28;20021;-75
2023/04/30 06:12:48;;;;;;;11.35;6.30;;;;;;;19.57;89.95;99067.84;5016407;28;20030;-76
2023/04/30 06:15:13;;;;;;;9.63;6.32;;;;;;;20.44;79.10;99086.13;5033443;28;20143;-76
2023/04/30 06:17:39;;;;;;;9.90;6.85;;;;;;;20.44;75.84;99064.16;5019308;28;20033;-76
2023/04/30 06:20:05;;;;;;;9.68;6.10;;;;;;;20.90;74.68;99082.94;5034532;28;20034;-76
2023/04/30 06:22:31;;;;;;;12.80;6.07;;;;;;;21.10;70.31;99074.84;5033990;28;20022;-77
2023/04/30 06:24:57;;;;;;;8.85;6.30;;;;;;;21.75;66.93;99071.91;5009317;28;20364;-76
2023/04/30 06:27:22;;;;;;;10.85;6.63;;;;;;;21.24;67.61;99066.94;5035114;28;20043;-76
2023/04/30 06:29:48;;;;;;;11.75;6.80;;;;;;;21.87;66.25;99072.47;5024836;28;20017;-74
2023/04/30 06:32:13;;;;;;;8.63;6.55;;;;;;;22.62;64.71;99069.31;5020013;28;20052;-75
2023/04/30 06:34:38;;;;;;;9.82;6.38;;;;;;;21.53;62.00;99053.63;5006171;28;20048;-76
2023/04/30 06:37:04;;;;;;;9.10;5.60;;;;;;;23.22;60.35;99083.34;5013328;28;20029;-75
2023/04/30 06:39:29;;;;;;;9.73;6.25;;;;;;;23.49;57.83;99088.50;5026313;28;20105;-73
2023/04/30 06:41:55;;;;;;;7.43;5.40;;;;;;;24.37;55.75;99085.06;5006631;28;20034;-74
2023/04/30 06:44:20;;;;;;;10.68;5.57;;;;;;;23.33;54.67;99063.69;4998715;28;20049;-73
2023/04/30 06:46:45;;;;;;;12.38;5.90;;;;;;;23.78;55.73;99077.66;5021120;28;20461;-72
2023/04/30 06:49:11;;;;;;;9.50;5.45;;;;;;;24.54;53.36;99084.66;4999322;28;20045;-74
2023/04/30 06:51:36;;;;;;;9.45;5.90;;;;;;;25.30;51.82;99101.72;5032026;28;20017;-71
2023/04/30 06:54:01;;;;;;;9.68;5.60;;;;;;;24.45;52.04;99084.47;5033364;28;20033;-70
2023/04/30 06:56:26;;;;;;;8.70;4.90;;;;;;;24.64;51.27;99081.00;5011202;28;20112;-70
2023/04/30 06:58:52;;;;;;;10.70;4.63;;;;;;;25.21;50.42;99078.59;5028689;28;20087;-72
2023/04/30 07:01:17;;;;;;;8.98;5.70;;;;;;;25.63;47.53;99079.75;5024946;28;20032;-72
2023/04/30 07:03:43;;;;;;;5.78;4.63;;;;;;;25.89;47.44;99063.66;5029371;28;20033;-72
2023/04/30 07:06:08;;;;;;;5.78;4.53;;;;;;;26.35;46.05;99072.13;5012343;28;20037;-73
2023/04/30 07:08:33;;;;;;;6.45;4.68;;;;;;;26.31;44.82;99079.41;5017165;28;20497;-72
2023/04/30 07:10:58;;;;;;;7.68;4.90;;;;;;;25.37;46.81;99088.38;5024416;28;20026;-71
2023/04/30 07:13:24;;;;;;;7.82;5.03;;;;;;;25.01;46.18;99096.19;5028816;28;20152;-74
2023/04/30 07:15:50;;;;;;;6.60;4.70;;;;;;;26.28;44.43;99074.47;5007211;28;20033;-73
2023/04/30 07:18:16;;;;;;;8.52;4.80;;;;;;;26.49;44.32;99076.91;5028948;28;20425;-74
2023/04/30 07:20:41;;;;;;;9.65;4.45;;;;;;;27.27;43.02;99073.41;5030985;28;20051;-73
2023/04/30 07:23:06;;;;;;;6.55;3.80;;;;;;;27.78;42.15;99073.50;5010193;28;20128;-74
2023/04/30 07:25:31;;;;;;;8.45;4.05;;;;;;;27.78;41.35;99084.63;5015448;28;20053;-72
2023/04/30 07:27:57;;;;;;;8.05;4.53;;;;;;;27.69;41.84;99081.72;5030893;28;20056;-74
2023/04/30 07:30:22;;;;;;;4.80;3.90;;;;;;;27.95;41.36;99074.50;5013919;28;20067;-74
2023/04/30 07:32:48;;;;;;;5.47;4.00;;;;;;;28.16;39.80;99071.28;5011724;28;20025;-72
2023/04/30 07:35:13;;;;;;;9.18;3.88;;;;;;;28.11;41.01;99063.88;5030375;28;20032;-74
2023/04/30 07:37:39;;;;;;;5.85;4.15;;;;;;;27.86;40.25;99056.91;5010629;28;20034;-75
2023/04/30 07:40:06;;;;;;;6.78;4.32;;;;;;;28.03;40.27;99047.91;5026872;28;20028;-75
2023/04/30 07:42:32;;;;;;;5.65;3.88;;;;;;;28.37;41.77;99075.25;5031909;28;20029;-76
2023/04/30 07:44:57;;;;;;;4.85;3.80;;;;;;;28.46;40.15;99066.16;5014348;28;20037;-75
2023/04/30 07:47:22;;;;;;;5.18;3.80;;;;;;;29.07;38.94;99058.25;5015092;28;20116;-74
2023/04/30 07:49:48;;;;;;;7.43;3.63;;;;;;;29.27;38.08;99072.44;5026278;28;20071;-78
2023/04/30 07:52:13;;;;;;;4.72;3.45;;;;;;;28.95;39.13;99070.78;5032160;28;20040;-77
2023/04/30 07:54:39;;;;;;;5.93;3.90;;;;;;;29.36;38.59;99069.69;5015389;28;20041;-77
2023/04/30 07:57:05;;;;;;;6.80;3.40;;;;;;;29.99;37.82;99069.56;5009740;28;20034;-74
2023/04/30 07:59:31;;;;;;;5.35;3.40;;;;;;;27.78;39.85;99067.94;5005314;28;20021;-73
2023/04/30 08:01:57;;;;;;;4.32;2.88;;;;;;;28.39;37.92;99066.56;5013491;28;20040;-74
2023/04/30 08:04:22;;;;;;;5.97;3.10;;;;;;;28.90;38.29;99076.47;5032199;28;20123;-72
2023/04/30 08:06:47;;;;;;;5.85;2.53;;;;;;;28.66;37.19;99078.75;5026101;28;21929;-74
2023/04/30 08:09:14;;;;;;;5.45;3.00;;;;;;;28.49;37.18;99071.91;5013307;28;20025;-74
2023/04/30 08:11:40;;;;;;;4.70;3.00;;;;;;;25.32;40.10;99057.94;5024579;28;20702;-72
2023/04/30 08:14:05;;;;;;;6.85;2.80;;;;;;;24.46;42.04;99074.22;5026077;28;20095;-71
2023/04/30 08:16:31;;;;;;;7.03;3.45;;;;;;;26.32;40.72;99071.91;5035158;28;20041;-73
2023/04/30 08:18:56;;;;;;;5.35;3.25;;;;;;;26.38;39.76;99062.38;5025383;28;20029;-72
2023/04/30 08:21:21;;;;;;;4.88;3.67;;;;;;;25.44;43.24;99061.16;5026206;28;20032;-72
2023/04/30 08:23:47;;;;;;;4.53;2.95;;;;;;;24.36;45.12;99072.31;5026995;28;20486;-72
2023/04/30 08:26:12;;;;;;;5.00;3.67;;;;;;;23.66;46.29;99077.97;5025195;28;20025;-72
2023/04/30 08:28:37;;;;;;;7.95;4.00;;;;;;;22.47;49.06;99075.63;5016725;28;20103;-72
2023/04/30 08:31:03;;;;;;;3.90;2.80;;;;;;;21.44;48.67;99080.00;5029208;28;20032;-72
2023/04/30 08:33:28;;;;;;;3.42;2.22;;;;;;;19.37;49.48;99091.22;5016895;28;20152;-71
2023/04/30 08:35:54;;;;;;;5.85;2.58;;;;;;;19.26;53.66;99081.19;5028321;28;20410;-71
2023/04/30 08:38:20;;;;;;;4.07;2.20;;;;;;;21.60;50.37;99081.75;5018980;28;20144;-73
2023/04/30 08:40:59;;;;;;;4.57;3.05;;;;;;;20.41;48.55;99080.31;5028185;28;20112;-73
2023/04/30 08:43:24;;;;;;;4.70;2.08;;;;;;;19.88;49.77;99080.06;5043793;28;20541;-73
2023/04/30 08:45:50;;;;;;;4.63;2.42;;;;;;;19.36;50.75;99078.59;5024802;28;20036;-72
2023/04/30 08:48:18;;;;;;;5.35;2.60;;;;;;;18.64;52.65;99073.91;5022339;28;20025;-72
2023/04/30 08:50:43;;;;;;;4.15;2.67;;;;;;;18.33;53.72;99067.91;5027297;28;20029;-73
2023/04/30 08:53:09;;;;;;;3.47;2.33;;;;;;;18.24;54.88;99074.06;5041841;23;20548;-73
2023/04/30 08:55:36;;;;;;;3.42;2.00;;;;;;;18.43;53.21;99085.63;5029049;28;20109;-73
2023/04/30 08:58:01;;;;;;;3.17;2.15;;;;;;;18.22;54.61;99096.22;5017817;28;20044;-73
2023/04/30 09:00:26;;;;;;;5.00;2.47;;;;;;;17.58;55.65;99090.84;5032792;28;20030;-73
2023/04/30 09:02:52;;;;;;;4.00;2.50;;;;;;;17.44;57.23;99098.47;5025295;28;20064;-73
2023/04/30 09:05:17;;;;;;;4.10;2.45;;;;;;;17.49;58.07;99086.81;5050852;28;20043;-73
2023/04/30 09:07:44;;;;;;;4.43;2.42;;;;;;;17.83;59.61;99090.56;5050173;28;20383;-72
2023/04/30 09:10:18;;;;;;;6.35;2.70;;;;;;;18.15;57.57;99096.34;5041709;28;20470;-73
2023/04/30 09:12:56;;;;;;;4.75;2.78;;;;;;;18.10;58.63;99081.75;5036341;28;20036;-73
2023/04/30 09:15:22;;;;;;;3.33;2.25;;;;;;;18.08;57.63;99087.47;5021580;28;20049;-73
2023/04/30 09:17:48;;;;;;;4.53;2.25;;;;;;;17.99;57.92;99091.69;5044894;28;20509;-73
2023/04/30 09:20:13;;;;;;;3.70;2.20;;;;;;;18.31;58.82;99085.69;5036684;28;20021;-73
2023/04/30 09:22:40;;;;;;;3.53;2.33;;;;;;;18.00;58.64;99074.19;5046666;28;20390;-72
2023/04/30 09:25:07;;;;;;;3.38;2.30;;;;;;;18.35;58.23;99078.66;5043185;28;20483;-73
2023/04/30 09:27:33;;;;;;;3.00;2.10;;;;;;;18.76;57.68;99082.09;5044798;28;20029;-73
2023/04/30 09:29:58;;;;;;;3.15;2.20;;;;;;;18.46;57.48;99074.16;5049617;28;20541;-73
2023/04/30 09:32:24;;;;;;;3.63;2.30;;;;;;;18.75;56.40;99077.69;5030080;28;20474;-73
2023/04/30 09:34:50;;;;;;;4.03;2.72;;;;;;;18.11;56.68;99072.47;5044692;28;20025;-73
2023/04/30 09:37:15;;;;;;;6.03;2.45;;;;;;;17.86;58.88;99079.09;5054349;28;20164;-72
2023/04/30 09:39:53;;;;;;;3.33;1.92;;;;;;;18.27;56.55;99076.31;5050623;28;20097;-73
2023/04/30 09:42:19;;;;;;;3.35;1.85;;;;;;;18.18;55.83;99079.47;5050646;28;20047;-73
2023/04/30 09:44:45;;;;;;;2.05;1.75;;;;;;;18.41;55.15;99066.69;5054227;28;20474;-73
2023/04/30 09:47:16;;;;;;;3.22;1.90;;;;;;;18.99;55.36;99079.19;5049154;28;20028;-73
2023/04/30 09:49:43;;;;;;;3.63;1.98;;;;;;;19.69;54.46;99083.13;5052458;28;20028;-73
2023/04/30 09:52:10;;;;;;;2.40;1.55;;;;;;;20.68;51.69;99069.31;5050965;28;20224;-73
2023/04/30 09:54:36;;;;;;;3.38;1.70;;;;;;;21.38;50.22;99073.66;5023372;28;20025;-73
2023/04/30 09:57:02;;;;;;;2.85;1.60;;;;;;;20.70;50.36;99070.72;5027465;28;20052;-73
2023/04/30 09:59:31;;;;;;;4.72;1.98;;;;;;;20.22;51.96;99077.94;5039847;28;20486;-73
2023/04/30 10:02:00;;;;;;;;;;;;;;;20.06;52.62;99071.47;5042942;28;20530;-72
2023/04/30 10:04:29;;;;;;;3.13;1.73;;;;;;;19.47;50.33;99072.16;5043603;28;19913;-74
2023/04/30 10:06:57;;;;;;;5.15;1.80;;;;;;;19.07;54.00;99077.06;5055840;28;20083;-73
2023/04/30 10:09:25;;;;;;;3.97;2.10;;;;;;;18.80;54.35;99067.63;5031593;28;20036;-74
2023/04/30 10:11:51;;;;;;;3.75;1.80;;;;;;;18.77;55.25;99059.91;5053722;28;20104;-73
2023/04/30 10:14:19;;;;;;;3.75;2.00;;;;;;;18.46;53.89;99077.72;5068225;28;20024;-73
2023/04/30 10:16:50;;;;;;;2.17;1.90;;;;;;;18.20;53.15;99068.25;5070485;28;20047;-73
2023/04/30 10:19:22;;;;;;;2.60;1.88;;;;;;;18.40;55.48;99073.25;5068706;28;20079;-73
2023/04/30 10:21:48;;;;;;;2.67;1.85;;;;;;;18.77;53.39;99067.31;5052634;28;20029;-73
2023/04/30 10:24:14;;;;;;;2.67;2.03;;;;;;;18.77;53.08;99062.66;5050322;28;20033;-72
2023/04/30 10:26:40;;;;;;;2.92;2.28;;;;;;;18.41;52.40;99053.00;5055804;28;20047;-72
2023/04/30 10:29:06;;;;;;;3.22;2.20;;;;;;;18.10;55.38;99051.63;5038127;28;20044;-72
2023/04/30 10:31:32;;;;;;;3.50;2.33;;;;;;;18.22;54.67;99062.53;5051465;28;20053;-73
2023/04/30 10:34:19;;;;;;;3.55;2.38;;;;;;;18.60;55.74;99067.25;5045653;28;20124;-73
2023/04/30 10:36:47;;;;;;;5.50;2.40;;;;;;;18.79;54.67;99063.25;5051761;28;20036;-72
2023/04/30 10:39:14;;;;;;;3.72;2.20;;;;;;;18.76;53.19;99062.91;5045497;28;20036;-72
2023/04/30 10:41:44;;;;;;;4.72;2.65;;;;;;;18.61;53.69;99057.97;5047899;28;20103;-73
2023/04/30 10:44:09;;;;;;;5.93;2.08;;;;;;;18.88;53.88;99055.41;5054908;28;20056;-72
2023/04/30 10:46:35;;;;;;;6.93;2.58;;;;;;;18.92;52.83;99056.56;5026877;28;20442;-72
2023/04/30 10:49:01;;;;;;;6.15;2.33;;;;;;;19.02;52.59;99059.47;5052074;28;20029;-73
2023/04/30 10:51:45;;;;;;;3.65;2.35;;;;;;;19.39;51.43;99058.03;5051383;28;20033;-73
2023/04/30 10:54:10;;;;;;;4.18;2.70;;;;;;;18.92;51.88;99040.13;5037769;28;20599;-73
2023/04/30 10:56:35;;;;;;;4.93;2.42;;;;;;;18.55;52.80;99042.56;5053149;28;20052;-73
2023/04/30 10:59:01;;;;;;;4.13;2.70;;;;;;;18.77;54.27;99050.84;5055417;28;20108;-73
2023/04/30 11:01:27;;;;;;;3.42;2.28;;;;;;;18.94;53.50;99050.81;5048868;28;20021;-73
2023/04/30 11:04:06;;;;;;;3.75;2.83;;;;;;;19.09;53.63;99050.22;5043501;28;20241;-73
2023/04/30 11:06:54;;;;;;;3.92;2.60;;;;;;;18.56;53.21;99041.47;5029960;28;20034;-73
2023/04/30 11:09:42;;;;;;;2.80;2.03;;;;;;;18.37;53.56;99046.38;5051627;28;20044;-73
2023/04/30 11:12:15;;;;;;;4.28;2.38;;;;;;;18.47;54.40;99046.53;5044178;28;20033;-73
2023/04/30 11:14:44;;;;;;;3.53;2.50;;;;;;;18.87;55.67;99050.19;5029587;28;20513;-73
2023/04/30 11:17:12;;;;;;;5.10;2.40;;;;;;;19.09;53.87;99042.81;5043685;28;20041;-73
2023/04/30 11:19:48;;;;;;;5.32;2.92;;;;;;;18.85;53.26;99053.16;5052436;28;20036;-73
2023/04/30 11:22:18;;;;;;;4.18;2.60;;;;;;;19.20;53.56;99046.53;5048739;28;20020;-73
2023/04/30 11:24:59;;;;;;;3.83;2.85;;;;;;;19.12;52.90;99046.97;5035058;28;20032;-73
2023/04/30 11:27:26;;;;;;;3.17;2.55;;;;;;;18.69;54.10;99041.13;5038313;28;20026;-73
2023/04/30 11:29:52;;;;;;;4.10;3.08;;;;;;;18.60;56.07;99046.19;5048318;28;20118;-73